首页
METAR-TAF:

METAR-TAF

机场 :

陶拉納魯, 马达加斯加

纬度: 25-02S, 经度: 046-57E, 海拔: 8米

当前天气观测

该预报发布于1小时和15分钟前的02:00 UTC
风速10节,风向东转东北
温度 20°C
湿度 88%
气压 1023 hPa
能见度10公里或以上
散云层高于1600英尺
散云层高于3300英尺

METAR: FMSD 220200Z 06010KT 9999 SCT016 SCT033 20/18 Q1023

时间: 06:15 (03:15 UTC)


TAF: 丢失

超过4000个机场的气象观测和天气预报(METAR&TAF报告)。

可查询的气象台以黄色和红色小点在地图上表示。

将鼠标移到小点上方,可查看气象台名称。

然后点击查看天气观测和预报。

如需切换地图:点击带黑十字的绿色按钮放大地图;点击带横线的绿色按钮缩小地图;或者点击绿色箭头查看邻近地区的地图。


METAR-TAF: